createdAt,value
2022-10-05T00:01:23.901Z,25.40
2022-10-05T00:04:16.097Z,22.00
2022-10-05T00:07:10.074Z,23.00
2022-10-05T00:10:01.147Z,28.47
2022-10-05T00:12:50.407Z,27.37
2022-10-05T00:15:39.657Z,24.23
2022-10-05T00:18:28.427Z,32.93
2022-10-05T00:21:21.797Z,22.77
2022-10-05T00:24:12.043Z,25.40
2022-10-05T00:27:02.307Z,21.27
2022-10-05T00:29:51.966Z,22.53
2022-10-05T00:32:41.025Z,20.47
2022-10-05T00:35:30.910Z,21.50
2022-10-05T00:38:18.618Z,25.00
2022-10-05T00:41:10.535Z,22.00
2022-10-05T00:44:29.103Z,18.67
2022-10-05T00:47:33.216Z,23.13
2022-10-05T00:50:58.270Z,19.30
2022-10-05T00:53:58.565Z,20.80
2022-10-05T00:57:09.552Z,20.00
2022-10-05T01:00:06.608Z,21.70
2022-10-05T01:03:00.586Z,20.63
2022-10-05T01:06:03.256Z,20.50
2022-10-05T01:08:59.604Z,17.43
2022-10-05T01:11:55.250Z,17.23
2022-10-05T01:14:51.537Z,16.33
2022-10-05T01:17:48.419Z,16.17
2022-10-05T01:20:49.549Z,15.23
2022-10-05T01:24:09.600Z,17.50
2022-10-05T01:27:16.771Z,16.97
2022-10-05T01:30:10.032Z,15.70
2022-10-05T01:33:04.855Z,15.83
2022-10-05T01:36:00.142Z,14.50
2022-10-05T01:38:55.216Z,16.97
2022-10-05T01:41:48.201Z,21.57
2022-10-05T01:44:42.380Z,16.53
2022-10-05T01:47:39.966Z,17.37
2022-10-05T01:50:38.185Z,17.50
2022-10-05T01:53:35.845Z,18.83
2022-10-05T01:56:31.734Z,15.70
2022-10-05T01:59:32.384Z,15.47
2022-10-05T02:02:24.220Z,15.10
2022-10-05T02:05:17.769Z,17.33
2022-10-05T02:08:11.112Z,16.47
2022-10-05T02:11:03.197Z,20.60
2022-10-05T02:13:57.115Z,20.73
2022-10-05T02:16:48.842Z,16.47
2022-10-05T02:19:40.439Z,13.80
2022-10-05T02:22:32.415Z,14.37
2022-10-05T02:25:23.112Z,14.23
2022-10-05T02:28:16.685Z,13.73
2022-10-05T02:31:10.522Z,14.60
2022-10-05T02:34:33.818Z,17.70
2022-10-05T02:37:54.323Z,14.40
2022-10-05T02:40:53.787Z,15.27
2022-10-05T02:43:48.104Z,16.27
2022-10-05T02:46:41.763Z,15.00
2022-10-05T02:49:39.915Z,16.67
2022-10-05T02:52:34.105Z,17.50
2022-10-05T02:55:29.896Z,14.07
2022-10-05T02:58:20.594Z,14.43
2022-10-05T03:01:16.802Z,17.00
2022-10-05T03:04:15.640Z,14.87
2022-10-05T03:07:12.086Z,13.80
2022-10-05T03:10:07.626Z,14.00
2022-10-05T03:13:04.455Z,17.77
2022-10-05T03:16:20.575Z,13.50
2022-10-05T03:19:23.154Z,14.03
2022-10-05T03:22:20.702Z,15.90
2022-10-05T03:25:57.986Z,15.70
2022-10-05T03:28:59.139Z,15.43
2022-10-05T03:31:54.841Z,15.43
2022-10-05T03:34:48.812Z,18.23
2022-10-05T03:37:49.129Z,17.00
2022-10-05T03:40:40.824Z,18.97
2022-10-05T03:43:55.941Z,16.03
2022-10-05T03:47:02.407Z,16.43
2022-10-05T03:50:04.157Z,19.30
2022-10-05T03:52:57.768Z,16.20
2022-10-05T03:55:50.819Z,15.10
2022-10-05T03:58:43.824Z,23.83
2022-10-05T04:01:40.616Z,14.30
2022-10-05T04:04:35.141Z,13.77
2022-10-05T04:13:16.097Z,12.60
2022-10-05T04:16:08.216Z,12.77
2022-10-05T04:19:02.491Z,14.60
2022-10-05T04:21:54.355Z,13.50
2022-10-05T04:24:46.848Z,12.87
2022-10-05T04:27:39.323Z,13.43
2022-10-05T04:30:28.053Z,14.03
2022-10-05T04:33:17.725Z,14.03
2022-10-05T04:36:20.056Z,12.10
2022-10-05T04:39:22.603Z,14.03
2022-10-05T04:42:18.242Z,13.40
2022-10-05T04:45:14.960Z,11.83
2022-10-05T04:48:19.251Z,16.00
2022-10-05T04:51:23.874Z,19.53
2022-10-05T04:54:23.506Z,17.20
2022-10-05T04:57:16.230Z,16.43
2022-10-05T05:00:19.477Z,15.43
2022-10-05T05:03:40.052Z,18.83
2022-10-05T05:06:36.226Z,15.97
2022-10-05T05:09:51.057Z,15.07
2022-10-05T05:12:51.040Z,14.70
2022-10-05T05:15:51.000Z,13.77
2022-10-05T05:19:02.804Z,14.07
2022-10-05T05:22:01.301Z,13.07
2022-10-05T06:22:22.406Z,18.10
2022-10-05T06:25:26.947Z,21.77
2022-10-05T06:28:17.213Z,20.43
2022-10-05T06:31:31.012Z,21.00
2022-10-05T06:34:32.185Z,26.00
2022-10-05T06:37:30.596Z,20.45
2022-10-05T06:40:30.796Z,17.80
2022-10-05T06:43:39.832Z,18.65
2022-10-05T06:47:01.297Z,17.10
2022-10-05T06:50:22.785Z,15.45
2022-10-05T06:53:44.739Z,18.13
2022-10-05T06:56:40.258Z,20.48
2022-10-05T06:59:37.298Z,19.98
2022-10-05T07:02:36.542Z,17.17
2022-10-05T07:05:46.437Z,17.25
2022-10-05T07:08:48.133Z,16.55
2022-10-05T07:11:57.244Z,15.30
2022-10-05T07:15:02.384Z,13.27
2022-10-05T07:18:05.130Z,13.57
2022-10-05T07:21:00.408Z,12.57
2022-10-05T07:23:58.881Z,11.95
2022-10-05T07:26:51.702Z,10.48
2022-10-05T07:29:50.523Z,11.23
2022-10-05T07:32:50.350Z,12.25
2022-10-05T07:36:07.225Z,10.02
2022-10-05T07:39:03.654Z,10.27
2022-10-05T07:42:01.165Z,9.20
2022-10-05T07:44:54.285Z,9.27
2022-10-05T07:47:48.508Z,11.90
2022-10-05T07:50:42.299Z,7.65
2022-10-05T07:53:37.759Z,9.95
2022-10-05T07:56:35.243Z,7.72
2022-10-05T07:59:32.813Z,7.22
2022-10-05T08:02:28.502Z,7.38
2022-10-05T08:05:23.155Z,7.78
2022-10-05T08:08:20.483Z,7.93
2022-10-05T08:11:17.198Z,8.68
2022-10-05T08:14:16.726Z,7.20
2022-10-05T08:17:12.587Z,6.70
2022-10-05T08:20:11.351Z,6.65
2022-10-05T08:23:04.863Z,7.05
2022-10-05T08:26:07.898Z,6.85
2022-10-05T08:29:10.255Z,8.40
2022-10-05T08:32:05.180Z,7.03
2022-10-05T08:34:59.296Z,7.40
2022-10-05T08:37:48.493Z,9.65
2022-10-05T08:41:17.638Z,5.25
2022-10-05T08:44:38.811Z,5.15
2022-10-05T08:47:49.634Z,5.95
2022-10-05T08:51:16.806Z,4.57
2022-10-05T09:18:46.450Z,3.03
2022-10-05T09:21:42.981Z,3.70
2022-10-05T09:24:50.129Z,3.25
2022-10-05T09:27:39.311Z,4.55
2022-10-05T09:30:37.841Z,3.35
2022-10-05T09:33:59.524Z,2.95
2022-10-05T09:37:30.689Z,5.43
2022-10-05T09:40:48.617Z,3.92
2022-10-05T09:44:18.828Z,3.17
2022-10-05T09:47:41.480Z,2.65
2022-10-05T09:50:58.594Z,3.13
2022-10-05T09:54:21.506Z,3.60
2022-10-05T09:57:29.343Z,2.92
2022-10-05T10:00:23.580Z,2.65
2022-10-05T10:03:48.077Z,5.38
2022-10-05T10:07:13.820Z,5.00
2022-10-05T10:10:37.355Z,3.05
2022-10-05T10:14:00.156Z,5.20
2022-10-05T10:17:12.739Z,5.40
2022-10-05T10:20:16.914Z,3.55
2022-10-05T10:23:20.540Z,3.10
2022-10-05T10:26:44.319Z,3.67
2022-10-05T10:29:55.484Z,5.40
2022-10-05T10:33:34.093Z,3.13
2022-10-05T10:36:29.938Z,4.25
2022-10-05T10:39:27.207Z,2.67
2022-10-05T10:42:33.572Z,3.53
2022-10-05T10:45:38.780Z,3.35
2022-10-05T10:49:07.276Z,3.95
2022-10-05T10:52:12.919Z,3.50
2022-10-05T10:55:20.115Z,3.53
2022-10-05T10:58:38.401Z,2.97
2022-10-05T11:01:34.026Z,2.17
2022-10-05T11:04:50.468Z,2.25
2022-10-05T11:07:55.194Z,2.67
2022-10-05T11:11:14.288Z,3.13
2022-10-05T11:14:23.248Z,3.30
2022-10-05T11:17:52.943Z,1.98
2022-10-05T11:21:08.301Z,1.95
2022-10-05T11:24:22.432Z,2.88
2022-10-05T11:27:42.841Z,2.28
2022-10-05T11:31:06.576Z,2.42
2022-10-05T11:34:33.825Z,2.38
2022-10-05T11:37:56.287Z,1.95
2022-10-05T11:41:29.450Z,2.60
2022-10-05T11:45:03.242Z,3.97
2022-10-05T11:48:25.960Z,2.08
2022-10-05T11:51:30.828Z,3.50
2022-10-05T11:55:12.102Z,1.60
2022-10-05T11:58:02.822Z,2.30
2022-10-05T12:00:57.592Z,3.05
2022-10-05T12:03:59.564Z,2.92
2022-10-05T12:07:04.007Z,2.55
2022-10-05T12:10:20.168Z,2.17
2022-10-05T12:13:22.629Z,4.55
2022-10-05T12:16:18.699Z,1.77
2022-10-05T12:19:15.396Z,2.13
2022-10-05T12:22:10.803Z,2.10
2022-10-05T12:27:55.244Z,2.35
2022-10-05T12:31:18.182Z,5.38
2022-10-05T12:34:16.520Z,3.03
2022-10-05T12:37:13.987Z,1.90
2022-10-05T12:40:07.313Z,3.47
2022-10-05T12:43:05.518Z,2.88
2022-10-05T12:46:05.633Z,2.47
2022-10-05T12:49:29.550Z,3.38
2022-10-05T12:52:38.488Z,1.95
2022-10-05T12:55:31.513Z,1.60
2022-10-05T12:58:30.021Z,2.15
2022-10-05T13:01:29.495Z,2.92
2022-10-05T13:04:28.755Z,2.63
2022-10-05T13:07:42.757Z,2.50
2022-10-05T13:10:36.628Z,3.17
2022-10-05T13:13:49.145Z,1.58
2022-10-05T13:16:46.213Z,2.33
2022-10-05T13:19:40.680Z,1.70
2022-10-05T13:22:36.358Z,1.52
2022-10-05T13:25:30.060Z,11.13
2022-10-05T13:28:23.781Z,2.17
2022-10-05T13:31:19.718Z,2.65
2022-10-05T13:34:19.000Z,1.88
2022-10-05T13:37:19.150Z,2.72
2022-10-05T13:40:18.941Z,2.85
2022-10-05T13:43:17.653Z,2.97
2022-10-05T13:46:12.820Z,3.03
2022-10-05T13:49:15.772Z,3.20
2022-10-05T13:52:17.700Z,3.80
2022-10-05T13:55:15.960Z,3.90
2022-10-05T13:58:09.742Z,2.33
2022-10-05T14:01:01.116Z,2.50
2022-10-05T14:04:14.755Z,5.03
2022-10-05T14:07:21.777Z,3.75
2022-10-05T14:10:18.472Z,2.70
2022-10-05T14:13:26.751Z,5.85
2022-10-05T14:16:22.347Z,3.20
2022-10-05T14:19:22.888Z,2.38
2022-10-05T14:22:14.070Z,1.98
2022-10-05T14:25:17.155Z,3.45
2022-10-05T14:28:24.209Z,3.65
2022-10-05T14:31:16.653Z,2.65
2022-10-05T14:34:35.203Z,3.67
2022-10-05T14:37:25.274Z,2.00
2022-10-05T14:40:29.929Z,2.75
2022-10-05T14:43:22.024Z,9.45
2022-10-05T14:46:27.786Z,5.70
2022-10-05T14:49:22.443Z,2.13
2022-10-05T14:52:32.740Z,1.65
2022-10-05T14:55:57.373Z,4.80
2022-10-05T14:59:00.839Z,2.55
2022-10-05T15:01:56.321Z,2.00
2022-10-05T15:04:50.026Z,2.17
2022-10-05T15:07:43.933Z,3.15
2022-10-05T15:10:37.604Z,3.63
2022-10-05T15:13:31.120Z,2.40
2022-10-05T15:16:20.846Z,4.03
2022-10-05T15:19:18.321Z,3.28
2022-10-05T15:22:29.669Z,2.50
2022-10-05T15:25:27.045Z,2.30
2022-10-05T15:28:24.674Z,2.13
2022-10-05T15:31:23.779Z,2.22
2022-10-05T15:34:17.643Z,3.03
2022-10-05T15:37:11.192Z,5.93
2022-10-05T15:40:01.102Z,2.53
2022-10-05T15:42:56.376Z,2.45
2022-10-05T15:45:53.606Z,3.95
2022-10-05T15:48:51.298Z,6.32
2022-10-05T15:51:50.874Z,2.22
2022-10-05T15:55:21.052Z,3.78
2022-10-05T15:58:24.602Z,2.88
2022-10-05T16:01:16.728Z,4.50
2022-10-05T16:04:14.443Z,2.33
2022-10-05T16:07:21.263Z,3.83
2022-10-05T16:10:16.731Z,2.60
2022-10-05T16:13:19.209Z,4.22
2022-10-05T16:16:22.126Z,3.55
2022-10-05T16:19:17.521Z,3.90
2022-10-05T16:22:16.458Z,4.03
2022-10-05T16:25:12.510Z,6.22
2022-10-05T16:28:10.530Z,4.28
2022-10-05T16:31:04.349Z,4.43
2022-10-05T16:34:09.513Z,5.03
2022-10-05T16:37:04.652Z,6.90
2022-10-05T16:39:59.914Z,7.70
2022-10-05T16:42:58.211Z,9.07
2022-10-05T16:45:56.451Z,13.10
2022-10-05T16:48:57.488Z,11.02
2022-10-05T16:51:55.154Z,12.77
2022-10-05T16:54:48.099Z,15.52
2022-10-05T17:03:39.061Z,13.80
2022-10-05T17:12:51.832Z,9.60
2022-10-05T17:15:54.324Z,8.27
2022-10-05T17:19:33.508Z,7.65
2022-10-05T17:22:30.038Z,5.35
2022-10-05T17:25:26.092Z,7.35
2022-10-05T17:28:23.369Z,5.75
2022-10-05T17:31:17.839Z,5.90
2022-10-05T17:34:27.385Z,6.97
2022-10-05T17:37:35.225Z,6.72
2022-10-05T17:40:37.249Z,6.70
2022-10-05T17:43:27.267Z,6.88
2022-10-05T17:46:39.381Z,6.38
2022-10-05T17:50:09.065Z,8.00
2022-10-05T17:53:37.723Z,6.90
2022-10-05T17:56:27.154Z,6.55
2022-10-05T17:59:39.307Z,6.45
2022-10-05T18:02:42.824Z,6.05
2022-10-05T18:05:31.265Z,7.75
2022-10-05T18:08:31.781Z,7.85
2022-10-05T18:14:21.070Z,6.35
2022-10-05T18:17:13.321Z,6.68
2022-10-05T18:20:30.156Z,7.13
2022-10-05T18:23:35.553Z,6.57
2022-10-05T18:26:33.616Z,7.88
2022-10-05T18:29:55.098Z,6.70
2022-10-05T18:33:07.718Z,6.82
2022-10-05T18:36:04.008Z,6.95
2022-10-05T18:39:02.431Z,6.43
2022-10-05T18:42:07.159Z,6.20
2022-10-05T19:08:29.416Z,7.90
2022-10-05T19:14:24.257Z,6.80
2022-10-05T19:17:25.387Z,7.50
2022-10-05T19:37:50.051Z,10.90
2022-10-05T19:40:44.084Z,11.45
2022-10-05T19:43:51.523Z,11.27
2022-10-05T19:46:55.134Z,11.30
2022-10-05T19:49:50.806Z,11.05
2022-10-05T19:52:48.971Z,11.30
2022-10-05T19:55:41.716Z,12.10
2022-10-05T19:58:33.281Z,9.90
2022-10-05T20:01:25.904Z,9.70
2022-10-05T20:04:13.425Z,10.77
2022-10-05T20:07:03.513Z,10.63
2022-10-05T20:09:55.250Z,10.00
2022-10-05T20:12:50.786Z,10.68
2022-10-05T20:15:56.249Z,11.93
2022-10-05T20:19:07.934Z,10.32
2022-10-05T20:21:59.846Z,12.55
2022-10-05T20:24:53.022Z,12.55
2022-10-05T20:27:49.431Z,10.35
2022-10-05T20:30:37.199Z,14.20
2022-10-05T20:33:27.369Z,13.43
2022-10-05T20:36:15.303Z,10.43
2022-10-05T20:39:03.469Z,11.90
2022-10-05T21:23:52.755Z,10.35
2022-10-05T21:26:41.573Z,9.40
2022-10-05T21:29:29.662Z,9.65
2022-10-05T21:32:18.657Z,9.70
2022-10-05T21:35:06.976Z,10.63
2022-10-05T21:37:54.574Z,8.68
2022-10-05T21:40:43.477Z,13.70
2022-10-05T21:43:31.829Z,8.55
2022-10-05T21:46:22.870Z,7.30
2022-10-05T21:49:14.171Z,8.25
2022-10-05T21:52:05.823Z,12.18
2022-10-05T21:54:53.407Z,7.80
2022-10-05T21:57:41.577Z,8.85
2022-10-05T22:00:29.509Z,9.33
2022-10-05T22:03:17.608Z,9.35
2022-10-05T22:06:07.836Z,7.75
2022-10-05T22:08:56.357Z,7.38
2022-10-05T22:11:47.136Z,8.30
2022-10-05T22:14:34.875Z,6.95
2022-10-05T22:17:25.048Z,7.43
2022-10-05T22:20:14.592Z,8.70
2022-10-05T22:23:03.765Z,9.20
2022-10-05T22:25:51.797Z,9.57
2022-10-05T22:28:40.932Z,9.17
2022-10-05T22:31:28.561Z,8.93
2022-10-05T22:34:16.125Z,8.87
2022-10-05T22:37:05.728Z,10.07
2022-10-05T22:39:55.995Z,8.33
2022-10-05T22:42:43.774Z,8.47
2022-10-05T22:45:32.768Z,9.17
2022-10-05T22:48:20.626Z,8.97
2022-10-05T22:51:09.453Z,8.53
2022-10-05T22:53:57.109Z,9.30
2022-10-05T22:56:46.293Z,9.77
2022-10-05T22:59:34.143Z,10.37
2022-10-05T23:02:22.054Z,9.33
2022-10-05T23:05:13.258Z,8.20
2022-10-05T23:08:03.311Z,8.73
2022-10-05T23:10:51.171Z,8.37
2022-10-05T23:13:40.456Z,8.63
2022-10-05T23:16:29.865Z,8.77
2022-10-05T23:19:18.056Z,8.57
2022-10-05T23:22:05.682Z,7.10
2022-10-05T23:24:54.262Z,8.73
2022-10-05T23:27:43.926Z,8.13
2022-10-05T23:30:33.166Z,7.83
2022-10-05T23:33:21.157Z,7.93
2022-10-05T23:36:10.555Z,7.27
2022-10-05T23:38:58.088Z,7.40
2022-10-05T23:41:46.435Z,7.93
2022-10-05T23:44:33.948Z,7.50
2022-10-05T23:47:23.049Z,7.33
2022-10-05T23:50:11.375Z,7.50
2022-10-05T23:52:59.155Z,6.47
2022-10-05T23:55:47.377Z,8.60
2022-10-05T23:58:34.888Z,7.53
